Terminal Aerodrome Forecast
Issued by NWS Atlanta, GA

Home | Current Version | Previous Version | Text Only | Print | Product List | Glossary On
Versions: 1 2 3 4 5 6 7 8 9 10 11 12 13 14 15 16 17 18 19 20 21 22 23 24 25 26 27 28
522
FTUS42 KFFC 250525
TAFAHN
TAF
KAHN 250525Z 2506/2606 VRB03KT P6SM FEW250
     FM251500 25005KT P6SM SCT060 BKN250
     FM260200 16003KT P6SM BKN250=

USA.gov is the U.S. government's official web portal to all federal, state and local government web resources and services.